sensor_id;sensor_type;location;lat;lon;timestamp;pressure;altitude;pressure_sealevel;temperature;humidity
10014;BME280;45684;48.358;10.746;2023-04-02T00:00:04;95416.81;;;7.94;100.00
10014;BME280;45684;48.358;10.746;2023-04-02T00:02:54;95416.47;;;7.96;100.00
10014;BME280;45684;48.358;10.746;2023-04-02T00:05:36;95413.97;;;7.99;100.00
10014;BME280;45684;48.358;10.746;2023-04-02T00:08:28;95418.72;;;8.02;100.00
10014;BME280;45684;48.358;10.746;2023-04-02T00:11:05;95426.78;;;8.02;100.00
10014;BME280;45684;48.358;10.746;2023-04-02T00:13:36;95423.28;;;8.02;100.00
10014;BME280;45684;48.358;10.746;2023-04-02T00:16:13;95416.97;;;7.98;100.00
10014;BME280;45684;48.358;10.746;2023-04-02T00:18:46;95423.44;;;7.97;100.00
10014;BME280;45684;48.358;10.746;2023-04-02T00:21:20;95418.22;;;8.00;100.00
10014;BME280;45684;48.358;10.746;2023-04-02T00:23:52;95423.28;;;8.02;100.00
10014;BME280;45684;48.358;10.746;2023-04-02T00:26:23;95419.00;;;8.01;100.00
10014;BME280;45684;48.358;10.746;2023-04-02T00:28:55;95422.50;;;8.01;100.00
10014;BME280;45684;48.358;10.746;2023-04-02T00:31:23;95425.69;;;8.03;100.00
10014;BME280;45684;48.358;10.746;2023-04-02T00:33:53;95434.22;;;7.97;100.00
10014;BME280;45684;48.358;10.746;2023-04-02T00:36:22;95428.38;;;8.03;100.00
10014;BME280;45684;48.358;10.746;2023-04-02T00:38:56;95435.78;;;8.06;100.00
10014;BME280;45684;48.358;10.746;2023-04-02T00:41:27;95436.44;;;8.03;100.00
10014;BME280;45684;48.358;10.746;2023-04-02T00:43:57;95430.91;;;8.00;100.00
10014;BME280;45684;48.358;10.746;2023-04-02T00:46:30;95422.19;;;7.94;100.00
10014;BME280;45684;48.358;10.746;2023-04-02T00:49:03;95432.19;;;7.93;100.00
10014;BME280;45684;48.358;10.746;2023-04-02T00:51:35;95419.00;;;7.92;100.00
10014;BME280;45684;48.358;10.746;2023-04-02T00:54:09;95422.34;;;7.89;100.00
10014;BME280;45684;48.358;10.746;2023-04-02T00:56:43;95418.22;;;7.91;100.00
10014;BME280;45684;48.358;10.746;2023-04-02T00:59:19;95414.13;;;7.94;100.00
10014;BME280;45684;48.358;10.746;2023-04-02T01:01:51;95421.06;;;7.86;100.00
10014;BME280;45684;48.358;10.746;2023-04-02T01:04:32;95428.69;;;7.93;100.00
10014;BME280;45684;48.358;10.746;2023-04-02T01:07:05;95426.63;;;7.99;100.00
10014;BME280;45684;48.358;10.746;2023-04-02T01:09:46;95424.72;;;7.99;100.00
10014;BME280;45684;48.358;10.746;2023-04-02T01:12:29;95428.69;;;7.93;100.00
10014;BME280;45684;48.358;10.746;2023-04-02T01:15:07;95429.31;;;7.90;100.00
10014;BME280;45684;48.358;10.746;2023-04-02T01:17:48;95436.91;;;7.88;100.00
10014;BME280;45684;48.358;10.746;2023-04-02T01:20:37;95433.75;;;7.86;100.00
10014;BME280;45684;48.358;10.746;2023-04-02T01:23:13;95442.59;;;7.86;100.00
10014;BME280;45684;48.358;10.746;2023-04-02T01:25:48;95440.06;;;7.81;100.00
10014;BME280;45684;48.358;10.746;2023-04-02T01:28:21;95441.81;;;7.86;100.00
10014;BME280;45684;48.358;10.746;2023-04-02T01:30:55;95442.78;;;7.90;100.00
10014;BME280;45684;48.358;10.746;2023-04-02T01:33:28;95442.16;;;7.93;100.00
10014;BME280;45684;48.358;10.746;2023-04-02T01:36:04;95442.94;;;7.85;100.00
10014;BME280;45684;48.358;10.746;2023-04-02T01:38:40;95446.75;;;7.84;100.00
10014;BME280;45684;48.358;10.746;2023-04-02T01:41:16;95449.44;;;7.84;100.00
10014;BME280;45684;48.358;10.746;2023-04-02T01:43:52;95444.97;;;7.88;100.00
10014;BME280;45684;48.358;10.746;2023-04-02T01:46:27;95459.72;;;7.82;100.00
10014;BME280;45684;48.358;10.746;2023-04-02T01:48:56;95467.16;;;7.85;100.00
10014;BME280;45684;48.358;10.746;2023-04-02T01:51:29;95460.81;;;7.81;100.00
10014;BME280;45684;48.358;10.746;2023-04-02T01:53:59;95457.16;;;7.77;100.00
10014;BME280;45684;48.358;10.746;2023-04-02T01:56:28;95466.53;;;7.79;100.00
10014;BME280;45684;48.358;10.746;2023-04-02T01:58:57;95463.50;;;7.81;100.00
10014;BME280;45684;48.358;10.746;2023-04-02T02:01:32;95468.09;;;7.80;100.00
10014;BME280;45684;48.358;10.746;2023-04-02T02:04:02;95455.91;;;7.74;100.00
10014;BME280;45684;48.358;10.746;2023-04-02T02:06:30;95470.78;;;7.72;100.00
10014;BME280;45684;48.358;10.746;2023-04-02T02:09:00;95477.13;;;7.76;100.00
10014;BME280;45684;48.358;10.746;2023-04-02T02:11:32;95476.81;;;7.77;100.00
10014;BME280;45684;48.358;10.746;2023-04-02T02:14:05;95481.22;;;7.73;100.00
10014;BME280;45684;48.358;10.746;2023-04-02T02:16:39;95481.72;;;7.75;100.00
10014;BME280;45684;48.358;10.746;2023-04-02T02:19:18;95486.13;;;7.71;100.00
10014;BME280;45684;48.358;10.746;2023-04-02T02:21:50;95495.31;;;7.70;100.00
10014;BME280;45684;48.358;10.746;2023-04-02T02:24:21;95500.84;;;7.74;100.00
10014;BME280;45684;48.358;10.746;2023-04-02T02:26:58;95497.22;;;7.70;100.00
10014;BME280;45684;48.358;10.746;2023-04-02T02:29:30;95506.88;;;7.71;100.00
10014;BME280;45684;48.358;10.746;2023-04-02T02:32:03;95510.53;;;7.75;100.00
10014;BME280;45684;48.358;10.746;2023-04-02T02:34:37;95508.59;;;7.66;100.00
10014;BME280;45684;48.358;10.746;2023-04-02T02:37:12;95508.25;;;7.59;100.00
10014;BME280;45684;48.358;10.746;2023-04-02T02:39:43;95511.91;;;7.63;100.00
10014;BME280;45684;48.358;10.746;2023-04-02T02:42:15;95504.59;;;7.55;100.00
10014;BME280;45684;48.358;10.746;2023-04-02T02:44:47;95513.03;;;7.62;100.00
10014;BME280;45684;48.358;10.746;2023-04-02T02:47:21;95511.09;;;7.54;100.00
10014;BME280;45684;48.358;10.746;2023-04-02T02:49:53;95507.94;;;7.52;100.00
10014;BME280;45684;48.358;10.746;2023-04-02T02:52:25;95512.34;;;7.48;100.00
10014;BME280;45684;48.358;10.746;2023-04-02T02:55:15;95520.28;;;7.53;100.00
10014;BME280;45684;48.358;10.746;2023-04-02T02:58:10;95512.81;;;7.50;100.00
10014;BME280;45684;48.358;10.746;2023-04-02T03:00:52;95521.53;;;7.47;100.00
10014;BME280;45684;48.358;10.746;2023-04-02T03:03:25;95516.16;;;7.47;100.00
10014;BME280;45684;48.358;10.746;2023-04-02T03:06:00;95522.50;;;7.51;100.00
10014;BME280;45684;48.358;10.746;2023-04-02T03:08:33;95518.84;;;7.47;100.00
10014;BME280;45684;48.358;10.746;2023-04-02T03:11:06;95526.28;;;7.50;100.00
10014;BME280;45684;48.358;10.746;2023-04-02T03:13:39;95515.97;;;7.44;100.00
10014;BME280;45684;48.358;10.746;2023-04-02T03:16:17;95519.31;;;7.49;100.00
10014;BME280;45684;48.358;10.746;2023-04-02T03:18:52;95528.03;;;7.46;100.00
10014;BME280;45684;48.358;10.746;2023-04-02T03:21:26;95527.53;;;7.44;100.00
10014;BME280;45684;48.358;10.746;2023-04-02T03:23:57;95530.22;;;7.44;100.00
10014;BME280;45684;48.358;10.746;2023-04-02T03:26:30;95528.63;;;7.43;100.00
10014;BME280;45684;48.358;10.746;2023-04-02T03:29:03;95535.00;;;7.47;100.00
10014;BME280;45684;48.358;10.746;2023-04-02T03:31:37;95538.78;;;7.46;100.00
10014;BME280;45684;48.358;10.746;2023-04-02T03:34:13;95541.94;;;7.48;100.00
10014;BME280;45684;48.358;10.746;2023-04-02T03:36:48;95545.56;;;7.44;100.00
10014;BME280;45684;48.358;10.746;2023-04-02T03:39:21;95553.50;;;7.49;100.00
10014;BME280;45684;48.358;10.746;2023-04-02T03:41:55;95558.06;;;7.39;100.00
10014;BME280;45684;48.358;10.746;2023-04-02T03:44:28;95553.00;;;7.38;100.00
10014;BME280;45684;48.358;10.746;2023-04-02T03:47:04;95559.78;;;7.35;100.00
10014;BME280;45684;48.358;10.746;2023-04-02T03:49:42;95557.25;;;7.39;100.00
10014;BME280;45684;48.358;10.746;2023-04-02T03:52:19;95553.00;;;7.38;100.00
10014;BME280;45684;48.358;10.746;2023-04-02T03:54:49;95572.09;;;7.36;100.00
10014;BME280;45684;48.358;10.746;2023-04-02T03:57:24;95555.03;;;7.32;100.00
10014;BME280;45684;48.358;10.746;2023-04-02T03:59:58;95566.06;;;7.31;100.00
10014;BME280;45684;48.358;10.746;2023-04-02T04:02:43;95564.69;;;7.33;100.00
10014;BME280;45684;48.358;10.746;2023-04-02T04:05:22;95556.91;;;7.32;100.00
10014;BME280;45684;48.358;10.746;2023-04-02T04:07:56;95566.53;;;7.24;100.00
10014;BME280;45684;48.358;10.746;2023-04-02T04:10:27;95567.28;;;7.16;100.00
10014;BME280;45684;48.358;10.746;2023-04-02T04:13:01;95573.09;;;7.09;100.00
10014;BME280;45684;48.358;10.746;2023-04-02T04:15:32;95583.69;;;7.06;100.00
10014;BME280;45684;48.358;10.746;2023-04-02T04:18:08;95574.28;;;6.95;100.00
10014;BME280;45684;48.358;10.746;2023-04-02T04:20:48;95579.34;;;6.96;100.00
10014;BME280;45684;48.358;10.746;2023-04-02T04:23:29;95584.22;;;6.94;100.00
10014;BME280;45684;48.358;10.746;2023-04-02T04:26:02;95593.66;;;6.83;100.00
10014;BME280;45684;48.358;10.746;2023-04-02T04:28:41;95588.88;;;6.80;100.00
10014;BME280;45684;48.358;10.746;2023-04-02T04:31:16;95593.41;;;6.71;100.00
10014;BME280;45684;48.358;10.746;2023-04-02T04:33:51;95602.09;;;6.68;100.00
10014;BME280;45684;48.358;10.746;2023-04-02T04:36:27;95617.69;;;6.65;100.00
10014;BME280;45684;48.358;10.746;2023-04-02T04:39:06;95610.75;;;6.64;100.00
10014;BME280;45684;48.358;10.746;2023-04-02T04:41:45;95617.16;;;6.55;100.00
10014;BME280;45684;48.358;10.746;2023-04-02T04:44:17;95618.25;;;6.54;100.00
10014;BME280;45684;48.358;10.746;2023-04-02T04:46:55;95622.03;;;6.53;100.00
10014;BME280;45684;48.358;10.746;2023-04-02T04:49:27;95619.16;;;6.49;100.00
10014;BME280;45684;48.358;10.746;2023-04-02T04:52:06;95632.72;;;6.44;100.00
10014;BME280;45684;48.358;10.746;2023-04-02T04:54:37;95629.75;;;6.32;100.00
10014;BME280;45684;48.358;10.746;2023-04-02T04:57:21;95637.78;;;6.32;100.00
10014;BME280;45684;48.358;10.746;2023-04-02T04:59:56;95643.19;;;6.18;100.00
10014;BME280;45684;48.358;10.746;2023-04-02T05:02:28;95647.28;;;6.16;100.00
10014;BME280;45684;48.358;10.746;2023-04-02T05:05:01;95647.69;;;6.09;100.00
10014;BME280;45684;48.358;10.746;2023-04-02T05:07:44;95648.88;;;6.03;100.00
10014;BME280;45684;48.358;10.746;2023-04-02T05:10:18;95649.38;;;6.05;100.00
10014;BME280;45684;48.358;10.746;2023-04-02T05:12:53;95657.53;;;6.00;100.00
10014;BME280;45684;48.358;10.746;2023-04-02T05:15:26;95658.81;;;6.02;100.00
10014;BME280;45684;48.358;10.746;2023-04-02T05:18:12;95665.47;;;6.05;100.00
10014;BME280;45684;48.358;10.746;2023-04-02T05:20:47;95663.41;;;6.02;100.00
10014;BME280;45684;48.358;10.746;2023-04-02T05:23:22;95671.72;;;6.00;100.00
10014;BME280;45684;48.358;10.746;2023-04-02T05:26:00;95669.34;;;5.99;100.00
10014;BME280;45684;48.358;10.746;2023-04-02T05:28:35;95668.66;;;6.21;100.00
10014;BME280;45684;48.358;10.746;2023-04-02T05:31:09;95669.34;;;6.26;100.00
10014;BME280;45684;48.358;10.746;2023-04-02T05:33:44;95669.44;;;6.35;100.00
10014;BME280;45684;48.358;10.746;2023-04-02T05:36:18;95679.16;;;6.45;100.00
10014;BME280;45684;48.358;10.746;2023-04-02T05:38:53;95681.94;;;6.53;100.00
10014;BME280;45684;48.358;10.746;2023-04-02T05:41:34;95684.97;;;6.60;100.00
10014;BME280;45684;48.358;10.746;2023-04-02T05:44:07;95686.63;;;6.70;100.00
10014;BME280;45684;48.358;10.746;2023-04-02T05:46:44;95684.03;;;6.79;100.00
10014;BME280;45684;48.358;10.746;2023-04-02T05:49:18;95689.47;;;6.87;100.00
10014;BME280;45684;48.358;10.746;2023-04-02T05:51:51;95699.19;;;6.97;100.00
10014;BME280;45684;48.358;10.746;2023-04-02T05:54:27;95694.56;;;7.11;100.00
10014;BME280;45684;48.358;10.746;2023-04-02T05:57:02;95702.03;;;7.14;100.00
10014;BME280;45684;48.358;10.746;2023-04-02T05:59:36;95705.56;;;7.24;100.00
10014;BME280;45684;48.358;10.746;2023-04-02T06:02:10;95705.78;;;7.36;100.00
10014;BME280;45684;48.358;10.746;2023-04-02T06:04:49;95716.81;;;7.26;100.00
10014;BME280;45684;48.358;10.746;2023-04-02T06:07:27;95710.94;;;7.24;100.00
10014;BME280;45684;48.358;10.746;2023-04-02T06:10:04;95716.19;;;7.29;100.00
10014;BME280;45684;48.358;10.746;2023-04-02T06:12:40;95720.00;;;7.28;100.00
10014;BME280;45684;48.358;10.746;2023-04-02T06:15:12;95726.56;;;7.22;100.00
10014;BME280;45684;48.358;10.746;2023-04-02T06:17:45;95724.28;;;7.29;100.00
10014;BME280;45684;48.358;10.746;2023-04-02T06:20:15;95727.56;;;7.26;100.00
10014;BME280;45684;48.358;10.746;2023-04-02T06:22:47;95737.78;;;7.37;100.00
10014;BME280;45684;48.358;10.746;2023-04-02T06:25:22;95738.91;;;7.45;100.00
10014;BME280;45684;48.358;10.746;2023-04-02T06:27:54;95737.22;;;7.49;100.00
10014;BME280;45684;48.358;10.746;2023-04-02T06:30:25;95748.69;;;7.63;100.00
10014;BME280;45684;48.358;10.746;2023-04-02T06:32:55;95749.59;;;7.81;100.00
10014;BME280;45684;48.358;10.746;2023-04-02T06:35:25;95758.47;;;7.82;100.00
10014;BME280;45684;48.358;10.746;2023-04-02T06:38:00;95757.13;;;7.93;100.00
10014;BME280;45684;48.358;10.746;2023-04-02T06:40:39;95763.19;;;8.07;100.00
10014;BME280;45684;48.358;10.746;2023-04-02T06:43:19;95762.41;;;8.07;100.00
10014;BME280;45684;48.358;10.746;2023-04-02T06:46:20;95774.50;;;8.18;100.00
10014;BME280;45684;48.358;10.746;2023-04-02T06:49:13;95780.09;;;8.30;100.00
10014;BME280;45684;48.358;10.746;2023-04-02T06:51:44;95782.53;;;8.40;100.00
10014;BME280;45684;48.358;10.746;2023-04-02T06:54:15;95789.44;;;8.33;100.00
10014;BME280;45684;48.358;10.746;2023-04-02T06:56:50;95792.06;;;8.47;100.00
10014;BME280;45684;48.358;10.746;2023-04-02T06:59:35;95794.91;;;8.41;100.00
10014;BME280;45684;48.358;10.746;2023-04-02T07:02:19;95799.09;;;8.65;100.00
10014;BME280;45684;48.358;10.746;2023-04-02T07:04:49;95803.88;;;8.68;100.00
10014;BME280;45684;48.358;10.746;2023-04-02T07:07:19;95803.44;;;8.83;100.00
10014;BME280;45684;48.358;10.746;2023-04-02T07:09:48;95800.41;;;8.85;100.00
10014;BME280;45684;48.358;10.746;2023-04-02T07:12:21;95801.56;;;8.92;100.00
10014;BME280;45684;48.358;10.746;2023-04-02T07:14:50;95801.56;;;8.92;100.00
10014;BME280;45684;48.358;10.746;2023-04-02T07:17:19;95807.44;;;9.12;100.00
10014;BME280;45684;48.358;10.746;2023-04-02T07:19:48;95801.56;;;9.18;100.00
10014;BME280;45684;48.358;10.746;2023-04-02T07:22:18;95805.88;;;9.11;100.00
10014;BME280;45684;48.358;10.746;2023-04-02T07:24:51;95808.34;;;8.90;100.00
10014;BME280;45684;48.358;10.746;2023-04-02T07:27:20;95806.34;;;9.22;100.00
10014;BME280;45684;48.358;10.746;2023-04-02T07:29:48;95810.16;;;9.29;100.00
10014;BME280;45684;48.358;10.746;2023-04-02T07:32:16;95813.03;;;9.33;100.00
10014;BME280;45684;48.358;10.746;2023-04-02T07:34:45;95818.91;;;9.61;100.00
10014;BME280;45684;48.358;10.746;2023-04-02T07:37:13;95817.16;;;9.65;100.00
10014;BME280;45684;48.358;10.746;2023-04-02T07:39:41;95819.22;;;9.51;100.00
10014;BME280;45684;48.358;10.746;2023-04-02T07:42:09;95827.16;;;9.64;100.00
10014;BME280;45684;48.358;10.746;2023-04-02T07:44:38;95823.34;;;9.74;100.00
10014;BME280;45684;48.358;10.746;2023-04-02T07:47:06;95827.63;;;9.75;100.00
10014;BME280;45684;48.358;10.746;2023-04-02T07:49:36;95831.75;;;9.90;100.00
10014;BME280;45684;48.358;10.746;2023-04-02T07:52:04;95837.25;;;10.19;100.00
10014;BME280;45684;48.358;10.746;2023-04-02T07:54:32;95832.19;;;10.35;100.00
10014;BME280;45684;48.358;10.746;2023-04-02T07:57:01;95822.75;;;10.50;100.00
10014;BME280;45684;48.358;10.746;2023-04-02T07:59:29;95828.41;;;10.57;100.00
10014;BME280;45684;48.358;10.746;2023-04-02T08:01:58;95833.84;;;10.48;100.00
10014;BME280;45684;48.358;10.746;2023-04-02T08:04:26;95839.00;;;10.33;100.00
10014;BME280;45684;48.358;10.746;2023-04-02T08:06:54;95837.06;;;10.42;100.00
10014;BME280;45684;48.358;10.746;2023-04-02T08:09:22;95836.88;;;10.56;100.00
10014;BME280;45684;48.358;10.746;2023-04-02T08:11:49;95846.19;;;10.67;100.00
10014;BME280;45684;48.358;10.746;2023-04-02T08:14:17;95849.75;;;10.59;100.00
10014;BME280;45684;48.358;10.746;2023-04-02T08:16:47;95845.78;;;10.86;100.00
10014;BME280;45684;48.358;10.746;2023-04-02T08:19:16;95842.16;;;11.11;100.00
10014;BME280;45684;48.358;10.746;2023-04-02T08:21:44;95866.34;;;11.16;100.00
10014;BME280;45684;48.358;10.746;2023-04-02T08:24:15;95856.88;;;11.52;100.00
10014;BME280;45684;48.358;10.746;2023-04-02T08:26:44;95847.69;;;11.65;100.00
10014;BME280;45684;48.358;10.746;2023-04-02T08:29:12;95862.34;;;11.43;100.00
10014;BME280;45684;48.358;10.746;2023-04-02T08:31:40;95861.09;;;11.41;100.00
10014;BME280;45684;48.358;10.746;2023-04-02T08:34:08;95862.25;;;11.31;100.00
10014;BME280;45684;48.358;10.746;2023-04-02T08:36:39;95870.47;;;11.43;100.00
10014;BME280;45684;48.358;10.746;2023-04-02T08:39:08;95870.41;;;11.73;100.00
10014;BME280;45684;48.358;10.746;2023-04-02T08:41:41;95878.59;;;11.64;100.00
10014;BME280;45684;48.358;10.746;2023-04-02T08:44:19;95872.34;;;11.72;100.00
10014;BME280;45684;48.358;10.746;2023-04-02T08:46:52;95877.56;;;11.78;100.00
10014;BME280;45684;48.358;10.746;2023-04-02T08:49:28;95885.03;;;11.81;100.00
10014;BME280;45684;48.358;10.746;2023-04-02T08:51:59;95883.47;;;12.00;100.00
10014;BME280;45684;48.358;10.746;2023-04-02T08:54:28;95889.09;;;11.95;100.00
10014;BME280;45684;48.358;10.746;2023-04-02T08:56:59;95887.25;;;12.20;100.00
10014;BME280;45684;48.358;10.746;2023-04-02T08:59:32;95905.38;;;12.29;100.00
10014;BME280;45684;48.358;10.746;2023-04-02T09:02:29;95899.03;;;12.24;100.00
10014;BME280;45684;48.358;10.746;2023-04-02T09:05:02;95906.44;;;12.36;99.50
10014;BME280;45684;48.358;10.746;2023-04-02T09:07:33;95906.66;;;12.43;99.61
10014;BME280;45684;48.358;10.746;2023-04-02T09:10:01;95909.41;;;12.56;98.39
10014;BME280;45684;48.358;10.746;2023-04-02T09:12:30;95913.56;;;12.41;98.32
10014;BME280;45684;48.358;10.746;2023-04-02T09:15:05;95908.16;;;12.20;100.00
10014;BME280;45684;48.358;10.746;2023-04-02T09:17:38;95919.47;;;12.22;99.52
10014;BME280;45684;48.358;10.746;2023-04-02T09:20:21;95916.34;;;12.32;100.00
10014;BME280;45684;48.358;10.746;2023-04-02T09:22:53;95926.47;;;12.23;100.00
10014;BME280;45684;48.358;10.746;2023-04-02T09:25:25;95921.22;;;12.39;100.00
10014;BME280;45684;48.358;10.746;2023-04-02T09:27:54;95927.31;;;12.69;100.00
10014;BME280;45684;48.358;10.746;2023-04-02T09:30:32;95934.53;;;12.65;99.67
10014;BME280;45684;48.358;10.746;2023-04-02T09:33:06;95930.06;;;12.48;99.20
10014;BME280;45684;48.358;10.746;2023-04-02T09:35:36;95945.13;;;12.58;99.21
10014;BME280;45684;48.358;10.746;2023-04-02T09:38:20;95942.13;;;12.71;96.13
10014;BME280;45684;48.358;10.746;2023-04-02T09:40:56;95941.63;;;12.57;100.00
10014;BME280;45684;48.358;10.746;2023-04-02T09:43:26;95942.91;;;12.39;100.00
10014;BME280;45684;48.358;10.746;2023-04-02T09:45:57;95940.09;;;12.14;100.00
10014;BME280;45684;48.358;10.746;2023-04-02T09:48:27;95949.22;;;11.89;100.00
10014;BME280;45684;48.358;10.746;2023-04-02T09:51:11;95952.53;;;11.65;100.00
10014;BME280;45684;48.358;10.746;2023-04-02T09:53:43;95947.63;;;11.58;100.00
10014;BME280;45684;48.358;10.746;2023-04-02T09:56:17;95945.94;;;11.45;100.00
10014;BME280;45684;48.358;10.746;2023-04-02T09:59:01;95957.00;;;11.61;100.00
10014;BME280;45684;48.358;10.746;2023-04-02T10:01:30;95963.66;;;11.72;100.00
10014;BME280;45684;48.358;10.746;2023-04-02T10:04:01;95960.53;;;11.61;100.00
10014;BME280;45684;48.358;10.746;2023-04-02T10:06:30;95968.78;;;11.65;100.00
10014;BME280;45684;48.358;10.746;2023-04-02T10:09:18;95967.28;;;11.85;100.00
10014;BME280;45684;48.358;10.746;2023-04-02T10:11:47;95968.06;;;12.06;100.00
10014;BME280;45684;48.358;10.746;2023-04-02T10:14:18;95959.53;;;12.16;100.00
10014;BME280;45684;48.358;10.746;2023-04-02T10:16:50;95965.03;;;12.29;100.00
10014;BME280;45684;48.358;10.746;2023-04-02T10:19:25;95970.25;;;12.67;100.00
10014;BME280;45684;48.358;10.746;2023-04-02T10:21:54;95981.38;;;12.86;100.00
10014;BME280;45684;48.358;10.746;2023-04-02T10:24:27;95980.06;;;13.62;100.00
10014;BME280;45684;48.358;10.746;2023-04-02T10:27:02;95978.69;;;13.56;94.53
10014;BME280;45684;48.358;10.746;2023-04-02T10:29:46;95976.06;;;14.09;88.14
10014;BME280;45684;48.358;10.746;2023-04-02T10:32:19;95984.13;;;13.81;85.01
10014;BME280;45684;48.358;10.746;2023-04-02T10:34:55;95982.28;;;13.97;84.18
10014;BME280;45684;48.358;10.746;2023-04-02T10:40:34;95985.66;;;14.06;83.76
10014;BME280;45684;48.358;10.746;2023-04-02T10:43:29;95981.06;;;13.82;82.26
10014;BME280;45684;48.358;10.746;2023-04-02T10:46:05;95987.97;;;13.79;84.54
10014;BME280;45684;48.358;10.746;2023-04-02T10:48:42;95983.44;;;13.96;83.10
10014;BME280;45684;48.358;10.746;2023-04-02T10:51:24;95992.97;;;13.77;80.71
10014;BME280;45684;48.358;10.746;2023-04-02T10:53:59;95996.47;;;13.78;82.24
10014;BME280;45684;48.358;10.746;2023-04-02T10:56:31;95992.50;;;13.88;81.90
10014;BME280;45684;48.358;10.746;2023-04-02T10:59:17;95999.53;;;13.64;83.17
10014;BME280;45684;48.358;10.746;2023-04-02T11:01:47;96005.44;;;13.66;85.60
10014;BME280;45684;48.358;10.746;2023-04-02T11:04:20;96004.84;;;13.48;84.61
10014;BME280;45684;48.358;10.746;2023-04-02T11:06:51;96008.09;;;13.42;86.95
10014;BME280;45684;48.358;10.746;2023-04-02T11:09:40;96004.47;;;13.25;86.20
10014;BME280;45684;48.358;10.746;2023-04-02T11:12:18;96001.88;;;12.96;91.36
10014;BME280;45684;48.358;10.746;2023-04-02T11:14:49;95999.91;;;13.17;91.36
10014;BME280;45684;48.358;10.746;2023-04-02T11:17:18;95998.03;;;13.30;91.98
10014;BME280;45684;48.358;10.746;2023-04-02T11:19:47;95996.56;;;13.45;92.34
10014;BME280;45684;48.358;10.746;2023-04-02T11:22:17;96007.22;;;13.62;86.10
10014;BME280;45684;48.358;10.746;2023-04-02T11:24:48;96003.47;;;14.03;87.90
10014;BME280;45684;48.358;10.746;2023-04-02T11:27:24;95999.56;;;14.29;82.78
10014;BME280;45684;48.358;10.746;2023-04-02T11:30:01;96004.66;;;14.30;79.86
10014;BME280;45684;48.358;10.746;2023-04-02T11:32:33;96006.09;;;14.00;81.00
10014;BME280;45684;48.358;10.746;2023-04-02T11:35:24;96016.22;;;14.27;81.66
10014;BME280;45684;48.358;10.746;2023-04-02T11:37:53;96019.13;;;14.47;78.79
10014;BME280;45684;48.358;10.746;2023-04-02T11:40:47;96021.38;;;14.57;77.88
10014;BME280;45684;48.358;10.746;2023-04-02T11:43:48;96025.66;;;14.70;76.39
10014;BME280;45684;48.358;10.746;2023-04-02T11:46:50;96029.91;;;14.84;75.30
10014;BME280;45684;48.358;10.746;2023-04-02T11:52:50;96025.44;;;14.91;75.40
10014;BME280;45684;48.358;10.746;2023-04-02T11:55:24;96034.31;;;14.88;74.33
10014;BME280;45684;48.358;10.746;2023-04-02T11:58:04;96029.59;;;14.73;74.50
10014;BME280;45684;48.358;10.746;2023-04-02T12:03:57;96034.59;;;15.59;71.84
10014;BME280;45684;48.358;10.746;2023-04-02T12:06:36;96034.34;;;15.79;68.84
10014;BME280;45684;48.358;10.746;2023-04-02T12:09:18;96032.66;;;15.59;70.55
10014;BME280;45684;48.358;10.746;2023-04-02T12:11:48;96035.06;;;15.92;66.30
10014;BME280;45684;48.358;10.746;2023-04-02T12:14:45;96033.72;;;16.02;66.49
10014;BME280;45684;48.358;10.746;2023-04-02T12:17:17;96042.50;;;16.11;63.65
10014;BME280;45684;48.358;10.746;2023-04-02T12:19:52;96031.91;;;16.25;61.53
10014;BME280;45684;48.358;10.746;2023-04-02T12:22:23;96032.75;;;15.94;62.57
10014;BME280;45684;48.358;10.746;2023-04-02T12:24:53;96030.44;;;16.12;59.60
10014;BME280;45684;48.358;10.746;2023-04-02T12:27:24;96037.53;;;16.32;57.77
10014;BME280;45684;48.358;10.746;2023-04-02T12:29:53;96033.25;;;16.51;56.63
10014;BME280;45684;48.358;10.746;2023-04-02T12:32:27;96026.19;;;16.30;60.54
10014;BME280;45684;48.358;10.746;2023-04-02T12:35:16;96021.00;;;15.74;62.24
10014;BME280;45684;48.358;10.746;2023-04-02T12:37:53;96028.88;;;15.48;62.45
10014;BME280;45684;48.358;10.746;2023-04-02T12:40:30;96034.59;;;15.43;63.23
10014;BME280;45684;48.358;10.746;2023-04-02T12:42:58;96031.84;;;15.27;69.58
10014;BME280;45684;48.358;10.746;2023-04-02T12:45:31;96034.31;;;14.88;68.43
10014;BME280;45684;48.358;10.746;2023-04-02T12:48:05;96038.66;;;14.37;74.62
10014;BME280;45684;48.358;10.746;2023-04-02T12:50:35;96037.13;;;13.87;80.34
10014;BME280;45684;48.358;10.746;2023-04-02T12:53:12;96047.31;;;13.90;84.58
10014;BME280;45684;48.358;10.746;2023-04-02T12:55:45;96048.09;;;14.02;82.87
10014;BME280;45684;48.358;10.746;2023-04-02T12:58:26;96063.94;;;14.25;80.93
10014;BME280;45684;48.358;10.746;2023-04-02T13:01:08;96057.91;;;14.44;79.53
10014;BME280;45684;48.358;10.746;2023-04-02T13:03:37;96057.59;;;14.33;74.10
10014;BME280;45684;48.358;10.746;2023-04-02T13:06:19;96065.69;;;14.70;72.35
10014;BME280;45684;48.358;10.746;2023-04-02T13:08:48;96054.06;;;15.13;69.92
10014;BME280;45684;48.358;10.746;2023-04-02T13:11:17;96049.78;;;15.28;66.02
10014;BME280;45684;48.358;10.746;2023-04-02T13:13:46;96053.53;;;15.23;67.53
10014;BME280;45684;48.358;10.746;2023-04-02T13:16:27;96043.13;;;15.25;66.92
10014;BME280;45684;48.358;10.746;2023-04-02T13:19:16;96042.59;;;15.36;65.44
10014;BME280;45684;48.358;10.746;2023-04-02T13:21:48;96043.53;;;15.43;65.45
10014;BME280;45684;48.358;10.746;2023-04-02T13:24:19;96059.91;;;14.99;69.39
10014;BME280;45684;48.358;10.746;2023-04-02T13:26:47;96059.16;;;14.22;80.19
10014;BME280;45684;48.358;10.746;2023-04-02T13:29:19;96058.72;;;13.34;90.69
10014;BME280;45684;48.358;10.746;2023-04-02T13:31:47;96073.81;;;12.48;100.00
10014;BME280;45684;48.358;10.746;2023-04-02T13:34:16;96067.19;;;11.78;100.00